Strona główna
METAR-TAF:

METAR-TAF

Lotnisko :

Port lotniczy Kuressaare

Kuressaare, Estonia

Szerokość geograficzna: 58-13-48N, Długość geograficzna: 022-30-34E, wysokość: 4 m

Aktualna obserwacja pogody

Raport powstał 26 minut temu, godzina 17:50 UTC
Wiatr 6 kt od południowo-południowy zachód
Temperatura 14°C
Wilgotność 94%
Ciśnienie 1012 hPa
Widzialność 10 km lub więcej

METAR: EEKE 181750Z AUTO 21006KT 9999NDV NCD 14/13 Q1012

czas: 21:16 (18:16 UTC)

Prognoza

Raport powstał 4 godziny i 16 minut temu, godzina 14:00 UTC
Prognoza ważna od 18 godzina 15 UTC do 18 godzina 21 UTC
Wiatr 10 kt od zachodnio-południowy zachód
Widzialność 10 km lub więcej
Przerywane chmury na wysokości 3000 ft
Prawdopodobieństwo 40% :
Przejściowo
od 18 godzina 15 UTC do 18 godzina 18 UTC
Widzialność: 5000 m
Przerywane chmury na wysokości 1000 ft
mżawka, zamglenie

TAF: EEKE 181400Z 1815/1821 25010KT 9999 BKN030 PROB40 TEMPO 1815/1818 5000 DZ BR BKN010

Obserwacja i prognoza pogody dla ponad 4000 lotnisk (raport METAR i TAF).

Dostępne stacje oznaczono żółtymi i czerwonymi punktami na mapie.

Najedź kursorem aby zobaczyć nazwę stacji.

Kliknij aby zobaczyć obserwacje i prognozy pogody.

Aby zmienić mapę: kliknij na zielony przycisk z czarnym krzyżykiem, aby powiększyć; na zielony przycisk z myślnikiem, aby pomniejszyć; na zielone strzałki, aby przejść do map sąsiednich.


METAR-TAF: